sensor_id;sensor_type;location;lat;lon;timestamp;P1;durP1;ratioP1;P2;durP2;ratioP2
45863;SDS011;31579;52.354;16.974;2023-06-19T00:04:18;10.80;;;7.60;;
45863;SDS011;31579;52.354;16.974;2023-06-19T00:09:19;16.10;;;11.50;;
45863;SDS011;31579;52.354;16.974;2023-06-19T00:14:18;16.10;;;11.50;;
45863;SDS011;31579;52.354;16.974;2023-06-19T00:19:20;8.30;;;6.40;;
45863;SDS011;31579;52.354;16.974;2023-06-19T00:24:19;8.30;;;6.40;;
45863;SDS011;31579;52.354;16.974;2023-06-19T00:29:19;10.30;;;7.10;;
45863;SDS011;31579;52.354;16.974;2023-06-19T00:34:19;10.30;;;7.10;;
45863;SDS011;31579;52.354;16.974;2023-06-19T00:39:19;18.00;;;13.40;;
45863;SDS011;31579;52.354;16.974;2023-06-19T00:44:19;18.00;;;13.40;;
45863;SDS011;31579;52.354;16.974;2023-06-19T00:49:21;13.80;;;9.60;;
45863;SDS011;31579;52.354;16.974;2023-06-19T00:54:19;13.80;;;9.60;;
45863;SDS011;31579;52.354;16.974;2023-06-19T00:59:19;13.10;;;8.30;;
45863;SDS011;31579;52.354;16.974;2023-06-19T01:04:19;13.10;;;8.30;;
45863;SDS011;31579;52.354;16.974;2023-06-19T01:09:19;12.20;;;8.00;;
45863;SDS011;31579;52.354;16.974;2023-06-19T01:14:21;12.20;;;8.00;;
45863;SDS011;31579;52.354;16.974;2023-06-19T01:19:19;11.90;;;7.50;;
45863;SDS011;31579;52.354;16.974;2023-06-19T01:24:19;11.90;;;7.50;;
45863;SDS011;31579;52.354;16.974;2023-06-19T01:29:19;10.60;;;7.70;;
45863;SDS011;31579;52.354;16.974;2023-06-19T01:34:19;10.60;;;7.70;;
45863;SDS011;31579;52.354;16.974;2023-06-19T01:39:19;14.50;;;8.80;;
45863;SDS011;31579;52.354;16.974;2023-06-19T01:44:19;14.50;;;8.80;;
45863;SDS011;31579;52.354;16.974;2023-06-19T01:49:19;12.50;;;8.50;;
45863;SDS011;31579;52.354;16.974;2023-06-19T01:54:19;12.50;;;8.50;;
45863;SDS011;31579;52.354;16.974;2023-06-19T01:55:27;12.50;;;8.50;;
45863;SDS011;31579;52.354;16.974;2023-06-19T02:00:26;12.10;;;7.60;;
45863;SDS011;31579;52.354;16.974;2023-06-19T02:05:26;12.10;;;7.60;;
45863;SDS011;31579;52.354;16.974;2023-06-19T02:10:30;20.90;;;13.70;;
45863;SDS011;31579;52.354;16.974;2023-06-19T02:12:45;20.90;;;13.70;;
45863;SDS011;31579;52.354;16.974;2023-06-19T02:17:43;23.10;;;16.00;;
45863;SDS011;31579;52.354;16.974;2023-06-19T02:22:43;23.10;;;16.00;;
45863;SDS011;31579;52.354;16.974;2023-06-19T02:27:43;11.00;;;7.60;;
45863;SDS011;31579;52.354;16.974;2023-06-19T02:32:43;11.00;;;7.60;;
45863;SDS011;31579;52.354;16.974;2023-06-19T02:37:43;11.90;;;8.00;;
45863;SDS011;31579;52.354;16.974;2023-06-19T02:42:46;11.90;;;8.00;;
45863;SDS011;31579;52.354;16.974;2023-06-19T02:47:43;15.70;;;11.10;;
45863;SDS011;31579;52.354;16.974;2023-06-19T02:52:43;15.70;;;11.10;;
45863;SDS011;31579;52.354;16.974;2023-06-19T02:57:43;18.80;;;11.10;;
45863;SDS011;31579;52.354;16.974;2023-06-19T03:02:43;18.80;;;11.10;;
45863;SDS011;31579;52.354;16.974;2023-06-19T03:07:43;14.20;;;10.50;;
45863;SDS011;31579;52.354;16.974;2023-06-19T03:12:43;14.20;;;10.50;;
45863;SDS011;31579;52.354;16.974;2023-06-19T03:17:43;31.60;;;19.40;;
45863;SDS011;31579;52.354;16.974;2023-06-19T03:22:43;31.60;;;19.40;;
45863;SDS011;31579;52.354;16.974;2023-06-19T03:27:43;22.80;;;13.50;;
45863;SDS011;31579;52.354;16.974;2023-06-19T03:32:43;22.80;;;13.50;;
45863;SDS011;31579;52.354;16.974;2023-06-19T03:37:43;18.60;;;10.90;;
45863;SDS011;31579;52.354;16.974;2023-06-19T03:42:43;18.60;;;10.90;;
45863;SDS011;31579;52.354;16.974;2023-06-19T03:47:46;21.90;;;14.60;;
45863;SDS011;31579;52.354;16.974;2023-06-19T03:52:43;21.90;;;14.60;;
45863;SDS011;31579;52.354;16.974;2023-06-19T03:57:43;32.70;;;21.10;;
45863;SDS011;31579;52.354;16.974;2023-06-19T04:02:43;32.70;;;21.10;;
45863;SDS011;31579;52.354;16.974;2023-06-19T04:07:43;18.90;;;12.30;;
45863;SDS011;31579;52.354;16.974;2023-06-19T04:12:43;18.90;;;12.30;;
45863;SDS011;31579;52.354;16.974;2023-06-19T04:17:43;33.00;;;24.40;;
45863;SDS011;31579;52.354;16.974;2023-06-19T04:22:43;33.00;;;24.40;;
45863;SDS011;31579;52.354;16.974;2023-06-19T04:24:01;33.00;;;24.40;;
45863;SDS011;31579;52.354;16.974;2023-06-19T04:28:59;30.80;;;22.30;;
45863;SDS011;31579;52.354;16.974;2023-06-19T04:33:59;30.80;;;22.30;;
45863;SDS011;31579;52.354;16.974;2023-06-19T04:38:59;25.70;;;19.90;;
45863;SDS011;31579;52.354;16.974;2023-06-19T04:43:59;25.70;;;19.90;;
45863;SDS011;31579;52.354;16.974;2023-06-19T04:48:59;32.90;;;24.30;;
45863;SDS011;31579;52.354;16.974;2023-06-19T04:54:01;32.90;;;24.30;;
45863;SDS011;31579;52.354;16.974;2023-06-19T04:58:59;30.40;;;23.20;;
45863;SDS011;31579;52.354;16.974;2023-06-19T05:03:59;30.40;;;23.20;;
45863;SDS011;31579;52.354;16.974;2023-06-19T05:08:59;27.10;;;21.80;;
45863;SDS011;31579;52.354;16.974;2023-06-19T05:13:59;27.10;;;21.80;;
45863;SDS011;31579;52.354;16.974;2023-06-19T05:14:19;27.10;;;21.80;;
45863;SDS011;31579;52.354;16.974;2023-06-19T05:19:17;26.60;;;20.70;;
45863;SDS011;31579;52.354;16.974;2023-06-19T05:24:17;26.60;;;20.70;;
45863;SDS011;31579;52.354;16.974;2023-06-19T05:29:17;22.90;;;18.90;;
45863;SDS011;31579;52.354;16.974;2023-06-19T05:34:17;22.90;;;18.90;;
45863;SDS011;31579;52.354;16.974;2023-06-19T05:39:17;20.20;;;17.80;;
45863;SDS011;31579;52.354;16.974;2023-06-19T05:44:18;20.20;;;17.80;;
45863;SDS011;31579;52.354;16.974;2023-06-19T05:49:17;19.80;;;16.90;;
45863;SDS011;31579;52.354;16.974;2023-06-19T05:54:17;19.80;;;16.90;;
45863;SDS011;31579;52.354;16.974;2023-06-19T05:59:17;18.70;;;15.40;;
45863;SDS011;31579;52.354;16.974;2023-06-19T06:04:17;18.70;;;15.40;;
45863;SDS011;31579;52.354;16.974;2023-06-19T06:09:17;17.90;;;14.10;;
45863;SDS011;31579;52.354;16.974;2023-06-19T06:14:17;17.90;;;14.10;;
45863;SDS011;31579;52.354;16.974;2023-06-19T06:19:19;14.10;;;12.30;;
45863;SDS011;31579;52.354;16.974;2023-06-19T06:24:17;14.10;;;12.30;;
45863;SDS011;31579;52.354;16.974;2023-06-19T06:29:17;15.70;;;11.80;;
45863;SDS011;31579;52.354;16.974;2023-06-19T06:34:18;15.70;;;11.80;;
45863;SDS011;31579;52.354;16.974;2023-06-19T06:39:18;12.50;;;9.80;;
45863;SDS011;31579;52.354;16.974;2023-06-19T06:44:17;12.50;;;9.80;;
45863;SDS011;31579;52.354;16.974;2023-06-19T06:49:17;9.20;;;7.40;;
45863;SDS011;31579;52.354;16.974;2023-06-19T06:54:17;9.20;;;7.40;;
45863;SDS011;31579;52.354;16.974;2023-06-19T06:59:17;8.70;;;7.80;;
45863;SDS011;31579;52.354;16.974;2023-06-19T07:04:17;8.70;;;7.80;;
45863;SDS011;31579;52.354;16.974;2023-06-19T07:09:17;9.20;;;7.60;;
45863;SDS011;31579;52.354;16.974;2023-06-19T07:14:17;9.20;;;7.60;;
45863;SDS011;31579;52.354;16.974;2023-06-19T07:19:17;7.30;;;6.40;;
45863;SDS011;31579;52.354;16.974;2023-06-19T07:23:31;7.30;;;6.40;;
45863;SDS011;31579;52.354;16.974;2023-06-19T07:28:29;7.50;;;5.60;;
45863;SDS011;31579;52.354;16.974;2023-06-19T07:33:29;7.50;;;5.60;;
45863;SDS011;31579;52.354;16.974;2023-06-19T07:38:29;6.20;;;5.60;;
45863;SDS011;31579;52.354;16.974;2023-06-19T07:43:29;6.20;;;5.60;;
45863;SDS011;31579;52.354;16.974;2023-06-19T07:47:07;6.40;;;5.40;;
45863;SDS011;31579;52.354;16.974;2023-06-19T07:52:06;6.40;;;5.40;;
45863;SDS011;31579;52.354;16.974;2023-06-19T07:57:06;6.40;;;5.40;;
45863;SDS011;31579;52.354;16.974;2023-06-19T08:02:05;6.70;;;5.30;;
45863;SDS011;31579;52.354;16.974;2023-06-19T08:07:05;6.70;;;5.30;;
45863;SDS011;31579;52.354;16.974;2023-06-19T08:12:06;6.60;;;5.30;;
45863;SDS011;31579;52.354;16.974;2023-06-19T08:17:09;6.60;;;5.30;;
45863;SDS011;31579;52.354;16.974;2023-06-19T08:22:06;6.00;;;5.20;;
45863;SDS011;31579;52.354;16.974;2023-06-19T08:27:06;6.00;;;5.20;;
45863;SDS011;31579;52.354;16.974;2023-06-19T08:32:07;8.10;;;5.20;;
45863;SDS011;31579;52.354;16.974;2023-06-19T08:37:06;8.10;;;5.20;;
45863;SDS011;31579;52.354;16.974;2023-06-19T08:42:06;5.70;;;4.80;;
45863;SDS011;31579;52.354;16.974;2023-06-19T08:47:06;5.70;;;4.80;;
45863;SDS011;31579;52.354;16.974;2023-06-19T08:52:06;6.60;;;5.20;;
45863;SDS011;31579;52.354;16.974;2023-06-19T08:57:06;6.60;;;5.20;;
45863;SDS011;31579;52.354;16.974;2023-06-19T09:02:06;6.80;;;5.70;;
45863;SDS011;31579;52.354;16.974;2023-06-19T09:07:07;6.80;;;5.70;;
45863;SDS011;31579;52.354;16.974;2023-06-19T09:17:06;7.00;;;5.40;;
45863;SDS011;31579;52.354;16.974;2023-06-19T09:22:07;6.80;;;5.40;;
45863;SDS011;31579;52.354;16.974;2023-06-19T09:37:10;6.60;;;5.30;;
45863;SDS011;31579;52.354;16.974;2023-06-19T09:42:06;6.50;;;5.80;;
45863;SDS011;31579;52.354;16.974;2023-06-19T09:47:08;6.50;;;5.80;;
45863;SDS011;31579;52.354;16.974;2023-06-19T09:52:06;6.80;;;5.70;;
45863;SDS011;31579;52.354;16.974;2023-06-19T09:56:19;6.80;;;5.70;;
45863;SDS011;31579;52.354;16.974;2023-06-19T10:01:17;6.80;;;5.90;;
45863;SDS011;31579;52.354;16.974;2023-06-19T10:06:17;6.80;;;5.90;;
45863;SDS011;31579;52.354;16.974;2023-06-19T10:11:20;6.50;;;5.40;;
45863;SDS011;31579;52.354;16.974;2023-06-19T10:16:20;6.50;;;5.40;;
45863;SDS011;31579;52.354;16.974;2023-06-19T10:21:19;6.20;;;5.60;;
45863;SDS011;31579;52.354;16.974;2023-06-19T10:26:19;6.20;;;5.60;;
45863;SDS011;31579;52.354;16.974;2023-06-19T10:27:28;9.30;;;5.60;;
45863;SDS011;31579;52.354;16.974;2023-06-19T10:32:26;9.30;;;5.60;;
45863;SDS011;31579;52.354;16.974;2023-06-19T10:37:36;7.50;;;6.10;;
45863;SDS011;31579;52.354;16.974;2023-06-19T10:42:38;7.50;;;6.10;;
45863;SDS011;31579;52.354;16.974;2023-06-19T10:47:35;7.50;;;6.00;;
45863;SDS011;31579;52.354;16.974;2023-06-19T10:52:34;7.50;;;6.00;;
45863;SDS011;31579;52.354;16.974;2023-06-19T10:57:34;6.90;;;5.70;;
45863;SDS011;31579;52.354;16.974;2023-06-19T11:02:34;6.90;;;5.70;;
45863;SDS011;31579;52.354;16.974;2023-06-19T11:07:37;8.30;;;6.50;;
45863;SDS011;31579;52.354;16.974;2023-06-19T11:12:34;8.30;;;6.50;;
45863;SDS011;31579;52.354;16.974;2023-06-19T11:16:07;8.30;;;6.50;;
45863;SDS011;31579;52.354;16.974;2023-06-19T11:21:16;6.90;;;6.20;;
45863;SDS011;31579;52.354;16.974;2023-06-19T11:26:15;6.90;;;6.20;;
45863;SDS011;31579;52.354;16.974;2023-06-19T11:31:15;8.50;;;6.40;;
45863;SDS011;31579;52.354;16.974;2023-06-19T11:33:18;8.50;;;6.40;;
45863;SDS011;31579;52.354;16.974;2023-06-19T11:38:22;8.20;;;6.00;;
45863;SDS011;31579;52.354;16.974;2023-06-19T11:53:15;6.60;;;5.80;;
45863;SDS011;31579;52.354;16.974;2023-06-19T11:58:15;6.70;;;6.00;;
45863;SDS011;31579;52.354;16.974;2023-06-19T12:03:17;6.70;;;6.00;;
45863;SDS011;31579;52.354;16.974;2023-06-19T12:08:15;7.00;;;6.00;;
45863;SDS011;31579;52.354;16.974;2023-06-19T12:13:15;7.00;;;6.00;;
45863;SDS011;31579;52.354;16.974;2023-06-19T12:18:16;10.20;;;5.90;;
45863;SDS011;31579;52.354;16.974;2023-06-19T12:23:15;10.20;;;5.90;;
45863;SDS011;31579;52.354;16.974;2023-06-19T12:28:15;6.00;;;5.10;;
45863;SDS011;31579;52.354;16.974;2023-06-19T12:33:15;6.00;;;5.10;;
45863;SDS011;31579;52.354;16.974;2023-06-19T12:38:15;7.30;;;5.50;;
45863;SDS011;31579;52.354;16.974;2023-06-19T12:43:15;7.30;;;5.50;;
45863;SDS011;31579;52.354;16.974;2023-06-19T12:48:08;7.30;;;5.50;;
45863;SDS011;31579;52.354;16.974;2023-06-19T12:53:06;6.00;;;4.90;;
45863;SDS011;31579;52.354;16.974;2023-06-19T12:58:06;5.80;;;4.80;;
45863;SDS011;31579;52.354;16.974;2023-06-19T13:03:06;5.80;;;4.80;;
45863;SDS011;31579;52.354;16.974;2023-06-19T13:04:13;5.80;;;4.80;;
45863;SDS011;31579;52.354;16.974;2023-06-19T13:09:12;7.20;;;5.20;;
45863;SDS011;31579;52.354;16.974;2023-06-19T13:14:12;7.20;;;5.20;;
45863;SDS011;31579;52.354;16.974;2023-06-19T13:19:12;6.50;;;5.10;;
45863;SDS011;31579;52.354;16.974;2023-06-19T13:24:12;6.50;;;5.10;;
45863;SDS011;31579;52.354;16.974;2023-06-19T13:29:12;6.40;;;5.00;;
45863;SDS011;31579;52.354;16.974;2023-06-19T13:34:16;6.40;;;5.00;;
45863;SDS011;31579;52.354;16.974;2023-06-19T13:39:12;7.90;;;5.60;;
45863;SDS011;31579;52.354;16.974;2023-06-19T13:44:12;7.90;;;5.60;;
45863;SDS011;31579;52.354;16.974;2023-06-19T13:49:14;6.30;;;4.70;;
45863;SDS011;31579;52.354;16.974;2023-06-19T13:54:12;6.30;;;4.70;;
45863;SDS011;31579;52.354;16.974;2023-06-19T13:59:12;8.80;;;5.50;;
45863;SDS011;31579;52.354;16.974;2023-06-19T14:04:12;8.80;;;5.50;;
45863;SDS011;31579;52.354;16.974;2023-06-19T14:09:12;5.90;;;5.30;;
45863;SDS011;31579;52.354;16.974;2023-06-19T14:14:12;5.90;;;5.30;;
45863;SDS011;31579;52.354;16.974;2023-06-19T14:19:12;7.20;;;5.50;;
45863;SDS011;31579;52.354;16.974;2023-06-19T14:24:10;7.20;;;5.50;;
45863;SDS011;31579;52.354;16.974;2023-06-19T14:29:10;6.90;;;5.20;;
45863;SDS011;31579;52.354;16.974;2023-06-19T14:34:10;6.90;;;5.20;;
45863;SDS011;31579;52.354;16.974;2023-06-19T14:39:10;9.10;;;5.70;;
45863;SDS011;31579;52.354;16.974;2023-06-19T14:44:10;9.10;;;5.70;;
45863;SDS011;31579;52.354;16.974;2023-06-19T14:49:10;8.60;;;5.40;;
45863;SDS011;31579;52.354;16.974;2023-06-19T14:54:10;8.60;;;5.40;;
45863;SDS011;31579;52.354;16.974;2023-06-19T14:59:11;9.70;;;5.90;;
45863;SDS011;31579;52.354;16.974;2023-06-19T15:04:14;9.70;;;5.90;;
45863;SDS011;31579;52.354;16.974;2023-06-19T15:09:10;8.90;;;5.70;;
45863;SDS011;31579;52.354;16.974;2023-06-19T15:14:10;8.90;;;5.70;;
45863;SDS011;31579;52.354;16.974;2023-06-19T15:19:12;10.40;;;5.80;;
45863;SDS011;31579;52.354;16.974;2023-06-19T15:24:10;10.40;;;5.80;;
45863;SDS011;31579;52.354;16.974;2023-06-19T15:29:10;7.30;;;5.30;;
45863;SDS011;31579;52.354;16.974;2023-06-19T15:34:10;7.30;;;5.30;;
45863;SDS011;31579;52.354;16.974;2023-06-19T15:39:10;6.20;;;5.60;;
45863;SDS011;31579;52.354;16.974;2023-06-19T15:44:10;6.20;;;5.60;;
45863;SDS011;31579;52.354;16.974;2023-06-19T15:49:11;6.20;;;5.60;;
45863;SDS011;31579;52.354;16.974;2023-06-19T15:54:10;6.20;;;5.60;;
45863;SDS011;31579;52.354;16.974;2023-06-19T15:59:10;7.40;;;5.70;;
45863;SDS011;31579;52.354;16.974;2023-06-19T16:04:10;7.40;;;5.70;;
45863;SDS011;31579;52.354;16.974;2023-06-19T16:09:10;8.10;;;5.70;;
45863;SDS011;31579;52.354;16.974;2023-06-19T16:14:10;8.10;;;5.70;;
45863;SDS011;31579;52.354;16.974;2023-06-19T16:19:10;6.20;;;5.10;;
45863;SDS011;31579;52.354;16.974;2023-06-19T16:24:10;6.20;;;5.10;;
45863;SDS011;31579;52.354;16.974;2023-06-19T16:29:10;5.20;;;4.40;;
45863;SDS011;31579;52.354;16.974;2023-06-19T16:34:10;5.20;;;4.40;;
45863;SDS011;31579;52.354;16.974;2023-06-19T16:39:14;5.60;;;4.40;;
45863;SDS011;31579;52.354;16.974;2023-06-19T16:44:10;5.60;;;4.40;;
45863;SDS011;31579;52.354;16.974;2023-06-19T16:49:10;7.40;;;5.20;;
45863;SDS011;31579;52.354;16.974;2023-06-19T16:54:12;7.40;;;5.20;;
45863;SDS011;31579;52.354;16.974;2023-06-19T16:59:10;6.00;;;4.60;;
45863;SDS011;31579;52.354;16.974;2023-06-19T17:04:10;6.00;;;4.60;;
45863;SDS011;31579;52.354;16.974;2023-06-19T17:09:10;6.50;;;4.10;;
45863;SDS011;31579;52.354;16.974;2023-06-19T17:14:10;6.50;;;4.10;;
45863;SDS011;31579;52.354;16.974;2023-06-19T17:19:10;7.80;;;4.70;;
45863;SDS011;31579;52.354;16.974;2023-06-19T17:24:10;7.80;;;4.70;;
45863;SDS011;31579;52.354;16.974;2023-06-19T17:29:10;7.40;;;4.70;;
45863;SDS011;31579;52.354;16.974;2023-06-19T17:34:10;7.40;;;4.70;;
45863;SDS011;31579;52.354;16.974;2023-06-19T17:39:10;6.40;;;4.40;;
45863;SDS011;31579;52.354;16.974;2023-06-19T17:44:10;6.40;;;4.40;;
45863;SDS011;31579;52.354;16.974;2023-06-19T17:49:10;6.70;;;4.90;;
45863;SDS011;31579;52.354;16.974;2023-06-19T17:54:10;6.70;;;4.90;;
45863;SDS011;31579;52.354;16.974;2023-06-19T18:04:10;7.10;;;4.90;;
45863;SDS011;31579;52.354;16.974;2023-06-19T18:09:10;6.90;;;5.00;;
45863;SDS011;31579;52.354;16.974;2023-06-19T18:14:14;6.90;;;5.00;;
45863;SDS011;31579;52.354;16.974;2023-06-19T18:18:34;7.90;;;5.00;;
45863;SDS011;31579;52.354;16.974;2023-06-19T18:23:32;7.90;;;5.00;;
45863;SDS011;31579;52.354;16.974;2023-06-19T18:28:32;6.80;;;5.10;;
45863;SDS011;31579;52.354;16.974;2023-06-19T18:33:32;6.80;;;5.10;;
45863;SDS011;31579;52.354;16.974;2023-06-19T18:38:32;6.60;;;5.20;;
45863;SDS011;31579;52.354;16.974;2023-06-19T18:43:32;6.60;;;5.20;;
45863;SDS011;31579;52.354;16.974;2023-06-19T18:47:31;6.60;;;5.20;;
45863;SDS011;31579;52.354;16.974;2023-06-19T18:52:29;6.60;;;5.20;;
45863;SDS011;31579;52.354;16.974;2023-06-19T18:57:29;6.60;;;5.20;;
45863;SDS011;31579;52.354;16.974;2023-06-19T18:58:27;6.60;;;5.20;;
45863;SDS011;31579;52.354;16.974;2023-06-19T19:03:26;7.10;;;5.20;;
45863;SDS011;31579;52.354;16.974;2023-06-19T19:07:06;7.10;;;5.20;;
45863;SDS011;31579;52.354;16.974;2023-06-19T19:12:04;7.10;;;5.20;;
45863;SDS011;31579;52.354;16.974;2023-06-19T19:17:04;7.10;;;5.20;;
45863;SDS011;31579;52.354;16.974;2023-06-19T19:22:04;11.00;;;5.90;;
45863;SDS011;31579;52.354;16.974;2023-06-19T19:27:04;11.00;;;5.90;;
45863;SDS011;31579;52.354;16.974;2023-06-19T19:32:04;15.20;;;6.50;;
45863;SDS011;31579;52.354;16.974;2023-06-19T19:37:04;15.20;;;6.50;;
45863;SDS011;31579;52.354;16.974;2023-06-19T19:42:04;10.00;;;5.70;;
45863;SDS011;31579;52.354;16.974;2023-06-19T19:47:04;10.00;;;5.70;;
45863;SDS011;31579;52.354;16.974;2023-06-19T19:52:04;9.70;;;5.60;;
45863;SDS011;31579;52.354;16.974;2023-06-19T19:57:04;9.70;;;5.60;;
45863;SDS011;31579;52.354;16.974;2023-06-19T20:02:04;15.40;;;6.50;;
45863;SDS011;31579;52.354;16.974;2023-06-19T20:07:04;15.40;;;6.50;;
45863;SDS011;31579;52.354;16.974;2023-06-19T20:11:04;14.80;;;6.60;;
45863;SDS011;31579;52.354;16.974;2023-06-19T20:16:02;14.80;;;6.60;;
45863;SDS011;31579;52.354;16.974;2023-06-19T20:21:02;12.00;;;6.90;;
45863;SDS011;31579;52.354;16.974;2023-06-19T20:26:05;12.00;;;6.90;;
45863;SDS011;31579;52.354;16.974;2023-06-19T20:31:02;16.40;;;6.80;;
45863;SDS011;31579;52.354;16.974;2023-06-19T20:36:02;16.40;;;6.80;;
45863;SDS011;31579;52.354;16.974;2023-06-19T20:41:02;16.30;;;6.80;;
45863;SDS011;31579;52.354;16.974;2023-06-19T20:46:02;16.30;;;6.80;;
45863;SDS011;31579;52.354;16.974;2023-06-19T20:51:02;20.10;;;9.50;;
45863;SDS011;31579;52.354;16.974;2023-06-19T20:56:02;20.10;;;9.50;;
45863;SDS011;31579;52.354;16.974;2023-06-19T21:01:02;24.20;;;9.10;;
45863;SDS011;31579;52.354;16.974;2023-06-19T21:06:02;24.20;;;9.10;;
45863;SDS011;31579;52.354;16.974;2023-06-19T21:11:02;27.80;;;9.10;;
45863;SDS011;31579;52.354;16.974;2023-06-19T21:16:02;27.80;;;9.10;;
45863;SDS011;31579;52.354;16.974;2023-06-19T21:21:02;18.20;;;6.90;;
45863;SDS011;31579;52.354;16.974;2023-06-19T21:26:02;18.20;;;6.90;;
45863;SDS011;31579;52.354;16.974;2023-06-19T21:31:02;17.90;;;7.10;;
45863;SDS011;31579;52.354;16.974;2023-06-19T21:36:02;17.90;;;7.10;;
45863;SDS011;31579;52.354;16.974;2023-06-19T21:41:02;14.60;;;7.90;;
45863;SDS011;31579;52.354;16.974;2023-06-19T21:46:02;14.60;;;7.90;;
45863;SDS011;31579;52.354;16.974;2023-06-19T21:51:02;14.10;;;7.50;;
45863;SDS011;31579;52.354;16.974;2023-06-19T21:56:02;14.10;;;7.50;;
45863;SDS011;31579;52.354;16.974;2023-06-19T22:01:06;14.20;;;8.60;;
45863;SDS011;31579;52.354;16.974;2023-06-19T22:06:02;14.20;;;8.60;;
45863;SDS011;31579;52.354;16.974;2023-06-19T22:11:02;11.50;;;7.60;;
45863;SDS011;31579;52.354;16.974;2023-06-19T22:16:02;11.50;;;7.60;;
45863;SDS011;31579;52.354;16.974;2023-06-19T22:21:02;13.20;;;8.60;;
45863;SDS011;31579;52.354;16.974;2023-06-19T22:26:02;13.20;;;8.60;;
45863;SDS011;31579;52.354;16.974;2023-06-19T22:31:02;11.70;;;9.00;;
45863;SDS011;31579;52.354;16.974;2023-06-19T22:36:02;11.70;;;9.00;;
45863;SDS011;31579;52.354;16.974;2023-06-19T22:41:02;12.70;;;9.20;;
45863;SDS011;31579;52.354;16.974;2023-06-19T22:46:02;12.70;;;9.20;;
45863;SDS011;31579;52.354;16.974;2023-06-19T22:51:02;15.80;;;9.90;;
45863;SDS011;31579;52.354;16.974;2023-06-19T22:56:02;15.80;;;9.90;;
45863;SDS011;31579;52.354;16.974;2023-06-19T23:01:02;14.20;;;8.40;;
45863;SDS011;31579;52.354;16.974;2023-06-19T23:06:02;14.20;;;8.40;;
45863;SDS011;31579;52.354;16.974;2023-06-19T23:11:02;12.20;;;8.50;;
45863;SDS011;31579;52.354;16.974;2023-06-19T23:16:04;12.20;;;8.50;;
45863;SDS011;31579;52.354;16.974;2023-06-19T23:21:05;11.40;;;7.90;;
45863;SDS011;31579;52.354;16.974;2023-06-19T23:26:02;11.40;;;7.90;;
45863;SDS011;31579;52.354;16.974;2023-06-19T23:31:02;14.50;;;9.80;;
45863;SDS011;31579;52.354;16.974;2023-06-19T23:36:02;14.50;;;9.80;;
45863;SDS011;31579;52.354;16.974;2023-06-19T23:41:02;14.30;;;10.30;;
45863;SDS011;31579;52.354;16.974;2023-06-19T23:46:02;14.30;;;10.30;;
45863;SDS011;31579;52.354;16.974;2023-06-19T23:51:02;15.00;;;10.80;;
45863;SDS011;31579;52.354;16.974;2023-06-19T23:56:02;15.00;;;10.80;;
